Kezdőlap
METAR-TAF:

METAR-TAF

Repülőterek :

Kudat, Malajzia

földrajzi szélesség: 06-55N, földrajzi hosszúság: 116-50E, magasság: 3 m

Jelenlegi meteorológiai megfigyelések

A jelentés 1 órával és 14 perccel ezelõtt készült, 15:00 UTC
Nyugat-délnyugati szél 3 kt, dél-délnyugati és nyugati között változik
Hőmérséklet 27°C
Páratartalom 84%
Légköri nyomás 1007 hPa
Látótávolság 10 km, vagy több
Kevés felhő 1500 lábon

METAR: WBKT 291500Z 24003KT 210V280 9999 FEW015 27/24 Q1007

Idő: 00:14 (16:14 UTC)


TAF: hiányzik

Meteorológiai megfigyelések és előrejelzések több, mint 4000 repülőtéren (METAR és TAF jelentéseket).

A térképen piros és sárga pontok jelzik az elérhető meteorológiai állomásokat.

Mozgassa az egeret a pont fölött, hogy megjelenjen az állomás neve.

Azután kattintson az időjárási megfigyelések és előrejelzések megtekintéséhez.

A térkép megváltoztatása: kattintson a fekete keresztel jelölt zöld gombra ráközelítéshez, a vonallal jelölt zöld gombra távolításhoz, vagy a zöld nyilakra a szomszédos térképek eléréséhez.


METAR-TAF: